createdAt,value
2022-08-31T00:02:37.354Z,83.72
2022-08-31T00:08:25.311Z,83.75
2022-08-31T00:13:37.226Z,83.78
2022-08-31T00:19:09.909Z,83.86
2022-08-31T00:24:42.647Z,84.10
2022-08-31T00:30:47.083Z,84.08
2022-08-31T00:36:27.304Z,84.14
2022-08-31T00:41:48.805Z,84.22
2022-08-31T00:47:46.678Z,84.30
2022-08-31T00:53:41.464Z,84.40
2022-08-31T00:59:37.480Z,84.55
2022-08-31T01:05:09.182Z,84.63
2022-08-31T01:11:13.337Z,84.75
2022-08-31T01:16:53.337Z,84.86
2022-08-31T01:23:12.161Z,85.05
2022-08-31T01:28:51.383Z,85.17
2022-08-31T01:34:49.351Z,85.39
2022-08-31T01:41:23.181Z,85.60
2022-08-31T01:46:58.124Z,85.68
2022-08-31T01:52:59.801Z,85.87
2022-08-31T01:59:24.612Z,86.13
2022-08-31T02:05:46.309Z,86.25
2022-08-31T02:11:39.741Z,86.85
2022-08-31T02:17:17.815Z,87.51
2022-08-31T02:23:13.952Z,87.82
2022-08-31T02:29:24.195Z,88.14
2022-08-31T02:35:18.151Z,88.32
2022-08-31T02:41:00.297Z,88.48
2022-08-31T02:46:19.514Z,88.60
2022-08-31T02:52:02.834Z,88.60
2022-08-31T02:57:25.163Z,88.68
2022-08-31T03:02:32.080Z,88.75
2022-08-31T03:08:31.220Z,88.75
2022-08-31T03:13:45.818Z,88.76
2022-08-31T03:19:08.234Z,88.78
2022-08-31T03:25:18.095Z,88.77
2022-08-31T03:30:31.450Z,88.88
2022-08-31T03:36:10.186Z,89.04
2022-08-31T03:41:52.072Z,88.80
2022-08-31T03:47:32.628Z,88.66
2022-08-31T03:53:11.254Z,88.59
2022-08-31T03:58:47.023Z,88.58
2022-08-31T04:04:07.216Z,88.46
2022-08-31T04:10:30.938Z,88.39
2022-08-31T04:16:09.259Z,88.40
2022-08-31T04:21:56.165Z,88.32
2022-08-31T04:27:13.137Z,88.33
2022-08-31T04:33:48.839Z,88.11
2022-08-31T04:39:05.972Z,88.20
2022-08-31T04:44:20.100Z,88.14
2022-08-31T04:49:34.186Z,88.08
2022-08-31T04:55:09.747Z,87.94
2022-08-31T05:00:53.722Z,87.94
2022-08-31T05:06:13.784Z,87.91
2022-08-31T05:11:39.861Z,87.69
2022-08-31T05:17:25.270Z,87.76
2022-08-31T05:23:26.339Z,87.35
2022-08-31T05:28:44.285Z,87.29
2022-08-31T05:34:44.574Z,86.89
2022-08-31T05:40:07.475Z,86.64
2022-08-31T05:45:58.917Z,86.55
2022-08-31T05:51:46.258Z,86.39
2022-08-31T05:58:13.723Z,85.94
2022-08-31T06:04:42.990Z,85.65
2022-08-31T06:10:05.514Z,85.01
2022-08-31T06:15:13.972Z,84.53
2022-08-31T06:20:39.596Z,84.32
2022-08-31T06:25:54.765Z,83.68
2022-08-31T06:30:56.999Z,83.28
2022-08-31T06:35:59.340Z,83.20
2022-08-31T06:41:36.361Z,82.77
2022-08-31T06:47:08.294Z,82.32
2022-08-31T06:52:20.514Z,81.70
2022-08-31T06:57:35.642Z,81.33
2022-08-31T07:03:24.875Z,81.11
2022-08-31T07:08:51.864Z,80.90
2022-08-31T07:14:00.108Z,80.48
2022-08-31T07:19:27.434Z,79.88
2022-08-31T07:24:35.423Z,79.36
2022-08-31T07:30:00.651Z,78.54
2022-08-31T07:35:15.370Z,77.62
2022-08-31T07:40:49.406Z,77.39
2022-08-31T07:45:55.594Z,77.10
2022-08-31T07:51:00.554Z,76.73
2022-08-31T07:56:21.949Z,76.19
2022-08-31T08:01:32.385Z,75.86
2022-08-31T08:06:39.478Z,75.23
2022-08-31T08:12:01.145Z,74.81
2022-08-31T08:17:50.813Z,74.42
2022-08-31T08:22:58.528Z,73.64
2022-08-31T08:28:40.274Z,73.01
2022-08-31T08:33:46.139Z,72.67
2022-08-31T08:38:57.512Z,72.09
2022-08-31T08:44:23.101Z,71.45
2022-08-31T08:50:23.074Z,71.15
2022-08-31T08:56:17.256Z,71.02
2022-08-31T09:01:30.628Z,70.77
2022-08-31T09:06:46.062Z,70.05
2022-08-31T09:12:14.048Z,69.57
2022-08-31T09:17:31.097Z,68.06
2022-08-31T09:23:01.907Z,67.05
2022-08-31T09:28:29.578Z,66.38
2022-08-31T09:33:55.851Z,66.21
2022-08-31T09:39:34.502Z,65.95
2022-08-31T09:44:43.400Z,64.94
2022-08-31T09:49:55.564Z,64.73
2022-08-31T09:55:27.831Z,64.43
2022-08-31T10:01:52.506Z,63.65
2022-08-31T10:07:42.126Z,63.92
2022-08-31T10:13:15.576Z,63.19
2022-08-31T10:18:53.100Z,62.10
2022-08-31T10:24:55.904Z,61.65
2022-08-31T10:30:30.713Z,61.28
2022-08-31T10:36:16.333Z,61.03
2022-08-31T10:41:29.039Z,60.38
2022-08-31T10:46:35.655Z,59.62
2022-08-31T10:51:46.863Z,59.44
2022-08-31T10:57:39.354Z,59.03
2022-08-31T11:03:23.262Z,58.46
2022-08-31T11:08:35.341Z,58.58
2022-08-31T11:14:07.423Z,58.33
2022-08-31T11:20:12.642Z,57.20
2022-08-31T11:25:56.098Z,57.77
2022-08-31T11:31:01.770Z,56.44
2022-08-31T11:36:12.727Z,56.32
2022-08-31T11:41:35.884Z,55.39
2022-08-31T11:46:39.800Z,55.61
2022-08-31T11:51:55.762Z,55.74
2022-08-31T11:57:15.842Z,55.75
2022-08-31T12:02:41.239Z,55.97
2022-08-31T12:07:50.684Z,55.35
2022-08-31T12:13:09.822Z,55.14
2022-08-31T12:18:43.073Z,54.94
2022-08-31T12:24:15.355Z,55.16
2022-08-31T12:29:40.412Z,55.04
2022-08-31T12:35:07.122Z,55.10
2022-08-31T12:40:34.542Z,54.04
2022-08-31T12:46:15.601Z,53.66
2022-08-31T12:52:03.476Z,52.82
2022-08-31T12:57:14.284Z,52.22
2022-08-31T13:02:38.125Z,52.47
2022-08-31T13:07:47.773Z,52.35
2022-08-31T13:12:53.535Z,52.05
2022-08-31T13:18:30.762Z,52.08
2022-08-31T13:23:46.671Z,52.07
2022-08-31T13:29:07.726Z,51.57
2022-08-31T13:34:12.372Z,50.70
2022-08-31T13:39:35.463Z,50.82
2022-08-31T13:45:19.469Z,51.13
2022-08-31T13:50:52.634Z,51.42
2022-08-31T13:56:55.021Z,50.58
2022-08-31T14:02:30.772Z,50.04
2022-08-31T14:08:07.450Z,50.20
2022-08-31T14:14:25.553Z,49.80
2022-08-31T14:20:06.863Z,50.05
2022-08-31T14:25:22.212Z,50.63
2022-08-31T14:30:35.720Z,51.04
2022-08-31T14:36:14.743Z,50.28
2022-08-31T14:41:19.321Z,50.53
2022-08-31T14:46:31.510Z,50.89
2022-08-31T14:51:42.047Z,51.08
2022-08-31T14:56:58.294Z,51.28
2022-08-31T15:02:13.825Z,51.32
2022-08-31T15:07:19.800Z,51.49
2022-08-31T15:12:22.494Z,51.60
2022-08-31T15:17:36.807Z,52.29
2022-08-31T15:22:45.137Z,53.02
2022-08-31T15:27:51.866Z,53.42
2022-08-31T15:33:01.506Z,53.89
2022-08-31T15:38:36.875Z,54.26
2022-08-31T15:44:33.060Z,54.35
2022-08-31T15:50:02.719Z,54.23
2022-08-31T15:55:31.845Z,53.42
2022-08-31T16:01:09.975Z,53.27
2022-08-31T16:06:40.446Z,53.57
2022-08-31T16:12:10.452Z,53.97
2022-08-31T16:17:21.479Z,54.12
2022-08-31T16:22:33.198Z,54.05
2022-08-31T16:27:59.910Z,54.06
2022-08-31T16:33:12.418Z,53.57
2022-08-31T16:38:25.975Z,53.82
2022-08-31T16:43:30.917Z,54.02
2022-08-31T16:49:15.212Z,54.19
2022-08-31T16:55:16.122Z,54.73
2022-08-31T17:01:00.584Z,55.24
2022-08-31T17:06:05.599Z,55.72
2022-08-31T17:11:22.575Z,56.24
2022-08-31T17:17:02.924Z,56.64
2022-08-31T17:22:25.625Z,57.14
2022-08-31T17:27:59.816Z,57.68
2022-08-31T17:33:17.642Z,58.44
2022-08-31T17:38:55.223Z,58.93
2022-08-31T17:44:05.047Z,59.59
2022-08-31T17:49:25.061Z,60.20
2022-08-31T17:55:02.020Z,60.72
2022-08-31T18:00:50.789Z,61.34
2022-08-31T18:06:03.650Z,61.71
2022-08-31T18:11:34.056Z,62.11
2022-08-31T18:16:39.582Z,62.49
2022-08-31T18:22:03.750Z,62.76
2022-08-31T18:27:53.664Z,63.13
2022-08-31T18:33:37.990Z,63.61
2022-08-31T18:38:57.579Z,63.89
2022-08-31T18:44:34.965Z,64.27
2022-08-31T18:50:44.692Z,64.62
2022-08-31T18:56:41.280Z,64.78
2022-08-31T19:02:33.561Z,65.15
2022-08-31T19:08:20.623Z,65.51
2022-08-31T19:13:46.677Z,65.86
2022-08-31T19:19:16.902Z,66.13
2022-08-31T19:24:40.851Z,66.67
2022-08-31T19:30:33.507Z,66.96
2022-08-31T19:36:26.573Z,67.32
2022-08-31T19:42:16.496Z,67.69
2022-08-31T19:48:01.285Z,67.94
2022-08-31T19:53:50.897Z,68.16
2022-08-31T19:59:21.202Z,68.64
2022-08-31T20:04:42.547Z,69.08
2022-08-31T20:09:54.611Z,69.33
2022-08-31T20:14:56.700Z,69.76
2022-08-31T20:20:57.545Z,70.10
2022-08-31T20:26:52.709Z,70.44
2022-08-31T20:32:19.222Z,70.65
2022-08-31T20:38:06.533Z,71.19
2022-08-31T20:43:39.916Z,71.43
2022-08-31T20:49:26.608Z,71.70
2022-08-31T20:56:17.947Z,71.71
2022-08-31T21:02:09.919Z,71.80
2022-08-31T21:07:57.523Z,72.01
2022-08-31T21:13:37.455Z,72.16
2022-08-31T21:19:52.914Z,72.31
2022-08-31T21:26:39.541Z,72.66
2022-08-31T21:32:53.073Z,72.53
2022-08-31T21:39:13.882Z,72.59
2022-08-31T21:45:18.847Z,72.66
2022-08-31T21:51:15.096Z,72.96
2022-08-31T21:57:57.174Z,72.98
2022-08-31T22:04:40.677Z,73.02
2022-08-31T22:11:01.357Z,73.13
2022-08-31T22:18:04.778Z,73.12
2022-08-31T22:24:29.933Z,73.32
2022-08-31T22:31:03.364Z,73.32
2022-08-31T22:37:49.598Z,73.48
2022-08-31T22:44:29.840Z,73.65
2022-08-31T22:50:25.823Z,73.77
2022-08-31T22:56:49.899Z,73.92
2022-08-31T23:02:52.577Z,74.06
2022-08-31T23:09:44.106Z,74.12
2022-08-31T23:15:46.673Z,74.31
2022-08-31T23:22:28.718Z,74.64
2022-08-31T23:28:49.690Z,74.90
2022-08-31T23:35:16.912Z,74.91
2022-08-31T23:42:02.545Z,75.26
2022-08-31T23:48:08.163Z,75.69
2022-08-31T23:53:50.925Z,76.02
